createdAt,value
2018-09-29T00:01:00.992Z,102610.66
2018-09-29T00:03:29.007Z,102603.81
2018-09-29T00:05:57.028Z,102607.75
2018-09-29T00:08:25.088Z,102611.29
2018-09-29T00:10:53.104Z,102613.06
2018-09-29T00:13:21.275Z,102611.41
2018-09-29T00:15:49.295Z,102609.01
2018-09-29T00:18:17.295Z,102609.16
2018-09-29T00:20:45.563Z,102602.23
2018-09-29T00:23:13.580Z,102603.58
2018-09-29T00:25:41.587Z,102603.58
2018-09-29T00:28:09.619Z,102606.60
2018-09-29T00:30:37.623Z,102606.64
2018-09-29T00:33:05.644Z,102611.43
2018-09-29T00:35:33.648Z,102605.88
2018-09-29T00:38:01.692Z,102602.46
2018-09-29T00:40:29.705Z,102605.99
2018-09-29T00:42:57.740Z,102610.78
2018-09-29T00:45:25.760Z,102605.20
2018-09-29T00:47:54.391Z,102606.10
2018-09-29T00:50:22.403Z,102606.17
2018-09-29T00:52:50.433Z,102598.46
2018-09-29T00:55:18.446Z,102600.66
2018-09-29T00:57:46.459Z,102594.67
2018-09-29T01:00:14.497Z,102593.38
2018-09-29T01:02:42.672Z,102598.59
2018-09-29T01:05:10.671Z,102593.91
2018-09-29T01:07:38.676Z,102590.89
2018-09-29T01:10:06.691Z,102597.80
2018-09-29T01:12:34.707Z,102601.33
2018-09-29T01:15:02.721Z,102595.28
2018-09-29T01:17:30.796Z,102596.17
2018-09-29T01:19:58.808Z,102596.25
2018-09-29T01:22:26.819Z,102594.52
2018-09-29T01:24:54.832Z,102588.93
2018-09-29T01:27:22.848Z,102592.02
2018-09-29T01:29:50.875Z,102603.30
2018-09-29T01:32:18.883Z,102600.70
2018-09-29T01:34:46.891Z,102607.64
2018-09-29T01:37:14.908Z,102602.09
2018-09-29T01:39:42.922Z,102605.98
2018-09-29T01:42:11.544Z,102607.34
2018-09-29T01:44:39.560Z,102609.50
2018-09-29T01:47:07.753Z,102605.18
2018-09-29T01:49:35.771Z,102598.30
2018-09-29T01:52:04.649Z,102597.47
2018-09-29T01:54:32.680Z,102607.41
2018-09-29T01:57:00.703Z,102608.27
2018-09-29T01:59:28.718Z,102606.57
2018-09-29T02:01:56.883Z,102601.42
2018-09-29T02:04:24.891Z,102600.16
2018-09-29T02:06:52.963Z,102600.19
2018-09-29T02:09:20.984Z,102594.62
2018-09-29T02:11:49.008Z,102591.20
2018-09-29T02:14:17.011Z,102588.24
2018-09-29T02:16:45.027Z,102588.21
2018-09-29T02:19:13.031Z,102585.66
2018-09-29T02:21:41.046Z,102590.06
2018-09-29T02:24:09.063Z,102588.39
2018-09-29T02:26:37.072Z,102587.62
2018-09-29T02:29:05.100Z,102584.22
2018-09-29T02:31:33.111Z,102591.16
2018-09-29T02:34:01.132Z,102595.94
2018-09-29T02:36:29.156Z,102581.72
2018-09-29T02:38:57.168Z,102582.20
2018-09-29T02:41:25.172Z,102589.57
2018-09-29T02:43:53.175Z,102584.83
2018-09-29T02:46:21.188Z,102591.73
2018-09-29T02:48:49.206Z,102584.85
2018-09-29T02:51:17.232Z,102580.13
2018-09-29T02:53:45.836Z,102581.92
2018-09-29T02:56:14.021Z,102580.24
2018-09-29T02:58:42.032Z,102578.57
2018-09-29T03:01:10.027Z,102585.04
2018-09-29T03:03:38.196Z,102581.19
2018-09-29T03:06:06.220Z,102579.54
2018-09-29T03:08:34.235Z,102589.48
2018-09-29T03:11:02.447Z,102585.20
2018-09-29T03:13:30.531Z,102587.84
2018-09-29T03:15:58.564Z,102582.25
2018-09-29T03:18:26.596Z,102572.81
2018-09-29T03:20:54.615Z,102568.09
2018-09-29T03:23:22.803Z,102569.41
2018-09-29T03:25:50.851Z,102568.98
2018-09-29T03:28:18.938Z,102569.46
2018-09-29T03:30:47.007Z,102574.23
2018-09-29T03:33:15.128Z,102572.10
2018-09-29T03:35:43.164Z,102563.03
2018-09-29T03:38:11.223Z,102561.75
2018-09-29T03:40:39.291Z,102563.03
2018-09-29T03:43:07.348Z,102572.55
2018-09-29T03:45:41.272Z,102564.86
2018-09-29T03:48:09.339Z,102572.16
2018-09-29T03:50:37.331Z,102564.02
2018-09-29T03:53:05.348Z,102569.20
2018-09-29T03:55:33.773Z,102573.52
2018-09-29T03:58:01.932Z,102573.94
2018-09-29T04:00:29.955Z,102576.52
2018-09-29T04:02:58.092Z,102577.84
2018-09-29T04:05:26.112Z,102574.81
2018-09-29T04:07:54.225Z,102586.05
2018-09-29T04:10:22.284Z,102584.34
2018-09-29T04:12:50.309Z,102582.60
2018-09-29T04:15:18.431Z,102580.44
2018-09-29T04:17:46.595Z,102581.76
2018-09-29T04:20:14.668Z,102583.08
2018-09-29T04:22:42.946Z,102578.28
2018-09-29T04:25:11.311Z,102580.88
2018-09-29T04:27:39.332Z,102575.27
2018-09-29T04:30:07.343Z,102582.58
2018-09-29T04:32:35.540Z,102583.91
2018-09-29T04:35:03.553Z,102580.48
2018-09-29T04:37:31.571Z,102578.42
2018-09-29T04:40:00.171Z,102582.75
2018-09-29T04:42:28.432Z,102584.50
2018-09-29T04:44:56.448Z,102580.19
2018-09-29T04:47:24.607Z,102578.47
2018-09-29T04:49:52.640Z,102575.45
2018-09-29T04:52:20.659Z,102578.47
2018-09-29T04:54:48.788Z,102573.27
2018-09-29T04:57:16.791Z,102573.72
2018-09-29T04:59:44.928Z,102575.44
2018-09-29T05:02:12.929Z,102574.17
2018-09-29T05:04:41.060Z,102578.09
2018-09-29T05:07:09.079Z,102581.95
2018-09-29T05:09:37.204Z,102576.78
2018-09-29T05:12:05.435Z,102577.20
2018-09-29T05:14:33.475Z,102578.94
2018-09-29T05:17:01.921Z,102576.78
2018-09-29T05:19:30.114Z,102581.06
2018-09-29T05:21:58.511Z,102577.65
2018-09-29T05:24:26.552Z,102580.61
2018-09-29T05:26:54.567Z,102573.31
2018-09-29T05:29:23.493Z,102568.59
2018-09-29T05:31:51.500Z,102576.33
2018-09-29T05:34:19.687Z,102578.47
2018-09-29T05:36:47.708Z,102583.66
2018-09-29T05:39:15.763Z,102584.06
2018-09-29T05:41:43.981Z,102581.92
2018-09-29T05:44:12.006Z,102585.38
2018-09-29T05:46:40.412Z,102583.20
2018-09-29T05:49:08.419Z,102589.69
2018-09-29T05:51:36.556Z,102589.28
2018-09-29T05:54:05.240Z,102587.15
2018-09-29T05:56:33.255Z,102581.99
2018-09-29T05:59:01.687Z,102586.33
2018-09-29T06:01:29.779Z,102588.05
2018-09-29T06:03:57.792Z,102593.61
2018-09-29T06:06:25.901Z,102594.44
2018-09-29T06:08:53.919Z,102593.55
2018-09-29T06:11:22.093Z,102587.06
2018-09-29T06:13:50.424Z,102590.05
2018-09-29T06:16:18.444Z,102590.06
2018-09-29T06:18:46.584Z,102593.08
2018-09-29T06:21:14.643Z,102593.44
2018-09-29T06:23:42.723Z,102599.03
2018-09-29T06:26:10.751Z,102602.42
2018-09-29T06:28:38.788Z,102593.34
2018-09-29T06:31:06.836Z,102597.66
2018-09-29T06:33:34.860Z,102595.08
2018-09-29T06:36:02.912Z,102595.91
2018-09-29T06:38:30.915Z,102595.86
2018-09-29T06:40:58.960Z,102599.29
2018-09-29T06:43:26.972Z,102589.30
2018-09-29T06:45:55.042Z,102587.96
2018-09-29T06:48:23.048Z,102589.61
2018-09-29T06:50:51.200Z,102586.57
2018-09-29T06:53:19.227Z,102588.25
2018-09-29T06:55:47.308Z,102583.83
2018-09-29T06:58:15.332Z,102581.16
2018-09-29T07:00:43.539Z,102585.80
2018-09-29T07:03:11.838Z,102588.71
2018-09-29T07:05:40.214Z,102586.44
2018-09-29T07:08:08.535Z,102585.48
2018-09-29T07:10:36.556Z,102590.98
2018-09-29T07:13:05.161Z,102595.21
2018-09-29T07:15:33.823Z,102595.13
2018-09-29T07:18:02.120Z,102594.59
2018-09-29T07:20:30.216Z,102601.79
2018-09-29T07:22:58.271Z,102600.36
2018-09-29T07:25:26.508Z,102593.81
2018-09-29T07:27:54.712Z,102595.41
2018-09-29T07:30:22.761Z,102601.77
2018-09-29T07:32:51.123Z,102600.30
2018-09-29T07:35:20.004Z,102604.95
2018-09-29T07:37:48.028Z,102603.08
2018-09-29T07:40:16.936Z,102593.81
2018-09-29T07:43:05.858Z,102592.37
2018-09-29T07:45:33.875Z,102593.00
2018-09-29T07:48:01.888Z,102593.28
2018-09-29T07:50:30.061Z,102601.30
2018-09-29T07:52:58.088Z,102597.24
2018-09-29T07:55:26.223Z,102602.59
2018-09-29T07:57:54.238Z,102601.15
2018-09-29T08:00:22.239Z,102602.67
2018-09-29T08:02:50.272Z,102601.58
2018-09-29T08:05:19.752Z,102597.89
2018-09-29T08:07:47.764Z,102595.52
2018-09-29T08:10:15.779Z,102593.97
2018-09-29T08:12:44.025Z,102590.23
2018-09-29T08:15:12.056Z,102589.94
2018-09-29T08:17:40.066Z,102598.30
2018-09-29T08:20:08.096Z,102589.77
2018-09-29T08:22:36.104Z,102593.86
2018-09-29T08:25:04.660Z,102592.24
2018-09-29T08:27:32.820Z,102591.97
2018-09-29T08:30:00.865Z,102587.73
2018-09-29T08:32:28.880Z,102587.45
2018-09-29T08:34:56.932Z,102584.58
2018-09-29T08:37:24.940Z,102583.80
2018-09-29T08:39:52.978Z,102580.70
2018-09-29T08:42:20.984Z,102578.98
2018-09-29T08:44:49.563Z,102585.45
2018-09-29T08:47:17.583Z,102579.36
2018-09-29T08:49:45.609Z,102574.49
2018-09-29T08:52:13.609Z,102576.59
2018-09-29T08:54:41.620Z,102576.14
2018-09-29T08:57:09.631Z,102577.52
2018-09-29T08:59:37.640Z,102581.91
2018-09-29T09:02:05.932Z,102577.70
2018-09-29T09:04:34.006Z,102581.52
2018-09-29T09:07:02.016Z,102584.02
2018-09-29T09:09:30.117Z,102583.81
2018-09-29T09:11:58.048Z,102580.53
2018-09-29T09:14:26.064Z,102586.66
2018-09-29T09:16:54.159Z,102588.41
2018-09-29T09:19:22.112Z,102581.84
2018-09-29T09:21:50.124Z,102580.30
2018-09-29T09:24:18.245Z,102585.05
2018-09-29T09:26:46.597Z,102573.39
2018-09-29T09:29:14.620Z,102572.37
2018-09-29T09:31:42.800Z,102574.53
2018-09-29T09:34:10.808Z,102569.78
2018-09-29T09:36:52.467Z,102564.66
2018-09-29T09:39:20.492Z,102558.25
2018-09-29T09:41:48.521Z,102560.28
2018-09-29T09:44:16.573Z,102561.00
2018-09-29T09:46:44.581Z,102562.94
2018-09-29T09:49:12.612Z,102560.55
2018-09-29T09:51:42.509Z,102555.66
2018-09-29T09:54:11.183Z,102552.81
2018-09-29T09:56:39.199Z,102555.92
2018-09-29T09:59:08.359Z,102551.87
2018-09-29T10:01:41.644Z,102551.13
2018-09-29T10:04:10.761Z,102536.05
2018-09-29T10:06:38.776Z,102542.63
2018-09-29T10:09:08.979Z,102529.41
2018-09-29T10:11:36.996Z,102533.73
2018-09-29T10:14:05.476Z,102533.27
2018-09-29T10:16:33.864Z,102529.38
2018-09-29T10:19:02.681Z,102516.50
2018-09-29T10:21:30.701Z,102520.24
2018-09-29T10:23:58.724Z,102520.46
2018-09-29T10:26:26.752Z,102515.75
2018-09-29T10:28:54.779Z,102512.97
2018-09-29T10:31:23.716Z,102510.49
2018-09-29T10:33:52.703Z,102508.72
2018-09-29T10:36:21.418Z,102506.21
2018-09-29T10:38:49.372Z,102503.79
2018-09-29T10:41:17.402Z,102502.95
2018-09-29T10:43:45.712Z,102503.72
2018-09-29T10:46:14.748Z,102500.89
2018-09-29T10:48:42.794Z,102499.58
2018-09-29T10:51:10.800Z,102490.45
2018-09-29T10:53:38.807Z,102491.92
2018-09-29T10:56:06.845Z,102490.19
2018-09-29T10:58:34.911Z,102486.91
2018-09-29T11:01:02.947Z,102475.53
2018-09-29T11:03:46.244Z,102475.24
2018-09-29T11:06:14.267Z,102477.81
2018-09-29T11:08:42.271Z,102475.73
2018-09-29T11:11:10.305Z,102469.19
2018-09-29T11:13:39.031Z,102463.84
2018-09-29T11:16:07.284Z,102463.39
2018-09-29T11:18:36.402Z,102454.55
2018-09-29T11:21:05.220Z,102458.66
2018-09-29T11:23:33.235Z,102451.11
2018-09-29T11:26:01.571Z,102443.30
2018-09-29T11:28:29.601Z,102442.06
2018-09-29T11:30:57.612Z,102435.55
2018-09-29T11:33:25.736Z,102432.23
2018-09-29T11:35:53.923Z,102428.23
2018-09-29T11:38:21.935Z,102421.07
2018-09-29T11:40:49.947Z,102418.25
2018-09-29T11:43:17.980Z,102411.82
2018-09-29T11:45:45.988Z,102418.38
2018-09-29T11:48:14.167Z,102412.93
2018-09-29T11:50:42.204Z,102408.45
2018-09-29T11:53:10.207Z,102408.81
2018-09-29T11:55:38.304Z,102399.77
2018-09-29T11:58:06.779Z,102400.08
2018-09-29T12:00:34.795Z,102398.46
2018-09-29T12:03:02.859Z,102385.20
2018-09-29T12:05:31.275Z,102382.22
2018-09-29T12:07:59.360Z,102374.80
2018-09-29T12:10:28.339Z,102376.86
2018-09-29T12:12:56.353Z,102371.91
2018-09-29T12:15:24.395Z,102374.55
2018-09-29T12:17:52.399Z,102372.44
2018-09-29T12:20:20.419Z,102365.94
2018-09-29T12:22:48.443Z,102368.31
2018-09-29T12:25:17.448Z,102368.97
2018-09-29T12:27:45.667Z,102361.19
2018-09-29T12:30:13.711Z,102360.11
2018-09-29T12:32:41.719Z,102353.88
2018-09-29T12:35:09.749Z,102351.89
2018-09-29T12:37:37.938Z,102343.50
2018-09-29T12:40:06.012Z,102336.77
2018-09-29T12:42:34.034Z,102337.44
2018-09-29T12:45:02.041Z,102335.13
2018-09-29T12:47:30.204Z,102328.49
2018-09-29T12:49:58.192Z,102321.44
2018-09-29T12:55:20.034Z,102310.23
2018-09-29T12:57:52.805Z,102312.06
2018-09-29T13:00:20.839Z,102308.08
2018-09-29T13:02:54.699Z,102306.28
2018-09-29T13:05:23.205Z,102302.31
2018-09-29T13:10:41.328Z,102289.22
2018-09-29T13:27:20.292Z,102267.59
2018-09-29T13:29:48.320Z,102264.73
2018-09-29T13:32:16.417Z,102258.23
2018-09-29T13:34:44.456Z,102254.70
2018-09-29T13:37:12.557Z,102254.36
2018-09-29T13:39:40.503Z,102248.81
2018-09-29T13:42:08.539Z,102240.73
2018-09-29T13:44:36.579Z,102234.46
2018-09-29T13:47:05.126Z,102236.39
2018-09-29T13:49:33.147Z,102228.34
2018-09-29T13:52:01.156Z,102225.70
2018-09-29T13:54:29.800Z,102223.52
2018-09-29T13:56:57.825Z,102225.80
2018-09-29T13:59:25.938Z,102216.87
2018-09-29T14:01:54.436Z,102217.16
2018-09-29T14:04:22.469Z,102222.98
2018-09-29T14:06:51.495Z,102216.16
2018-09-29T14:09:19.525Z,102208.47
2018-09-29T14:11:48.396Z,102204.62
2018-09-29T14:14:16.427Z,102200.66
2018-09-29T14:16:44.453Z,102200.00
2018-09-29T14:19:12.483Z,102195.73
2018-09-29T14:21:40.515Z,102196.02
2018-09-29T14:24:08.544Z,102188.23
2018-09-29T14:26:37.668Z,102179.25
2018-09-29T14:29:05.811Z,102171.43
2018-09-29T14:31:33.993Z,102169.24
2018-09-29T14:34:02.012Z,102158.03
2018-09-29T14:36:30.469Z,102158.23
2018-09-29T14:38:58.500Z,102159.52
2018-09-29T14:41:26.516Z,102147.37
2018-09-29T14:43:54.551Z,102150.86
2018-09-29T14:46:22.572Z,102144.84
2018-09-29T14:48:50.595Z,102145.31
2018-09-29T14:51:19.140Z,102144.77
2018-09-29T14:53:47.171Z,102133.49
2018-09-29T14:56:15.192Z,102139.98
2018-09-29T14:58:43.203Z,102133.61
2018-09-29T15:01:12.004Z,102129.20
2018-09-29T15:03:40.050Z,102122.33
2018-09-29T15:06:08.077Z,102111.15
2018-09-29T15:08:36.657Z,102118.88
2018-09-29T15:11:04.684Z,102112.59
2018-09-29T15:13:32.703Z,102109.22
2018-09-29T15:16:00.822Z,102106.97
2018-09-29T15:18:28.832Z,102091.95
2018-09-29T15:20:56.862Z,102090.39
2018-09-29T15:23:24.895Z,102093.66
2018-09-29T15:25:52.916Z,102083.83
2018-09-29T15:28:20.936Z,102076.97
2018-09-29T15:30:49.631Z,102082.91
2018-09-29T15:33:17.679Z,102069.64
2018-09-29T15:35:45.695Z,102068.44
2018-09-29T15:38:14.380Z,102064.33
2018-09-29T15:40:42.404Z,102064.72
2018-09-29T15:43:10.637Z,102061.11
2018-09-29T15:45:39.020Z,102062.62
2018-09-29T15:48:06.940Z,102053.12
2018-09-29T15:50:34.957Z,102054.32
2018-09-29T15:53:03.028Z,102064.76
2018-09-29T15:55:31.064Z,102057.54
2018-09-29T15:57:59.119Z,102059.17
2018-09-29T16:00:27.148Z,102049.63
2018-09-29T16:02:55.268Z,102057.08
2018-09-29T16:05:23.279Z,102054.01
2018-09-29T16:07:51.315Z,102047.48
2018-09-29T16:10:19.341Z,102047.33
2018-09-29T16:12:47.413Z,102041.11
2018-09-29T16:15:15.432Z,102049.98
2018-09-29T16:17:43.488Z,102044.63
2018-09-29T16:20:11.501Z,102036.20
2018-09-29T16:22:39.540Z,102036.50
2018-09-29T16:25:07.589Z,102036.06
2018-09-29T16:27:35.617Z,102039.84
2018-09-29T16:30:03.627Z,102036.53
2018-09-29T16:32:31.647Z,102032.98
2018-09-29T16:34:59.672Z,102034.81
2018-09-29T16:37:28.415Z,102031.56
2018-09-29T16:39:56.567Z,102036.02
2018-09-29T16:42:24.591Z,102023.44
2018-09-29T16:44:52.660Z,102025.94
2018-09-29T16:47:20.684Z,102023.21
2018-09-29T16:49:48.860Z,102022.96
2018-09-29T16:52:16.915Z,102020.25
2018-09-29T16:54:44.956Z,102016.72
2018-09-29T16:57:12.964Z,102016.92
2018-09-29T16:59:40.975Z,102019.81
2018-09-29T17:02:09.013Z,102020.31
2018-09-29T17:04:37.194Z,102019.74
2018-09-29T17:07:05.155Z,102017.36
2018-09-29T17:09:33.172Z,102014.97
2018-09-29T17:12:01.199Z,102004.17
2018-09-29T17:14:29.211Z,102001.72
2018-09-29T17:16:57.251Z,102002.14
2018-09-29T17:19:25.779Z,102003.41
2018-09-29T17:21:53.918Z,102006.17
2018-09-29T17:24:21.871Z,102001.98
2018-09-29T17:26:49.909Z,102007.31
2018-09-29T17:29:17.949Z,102003.97
2018-09-29T17:31:46.005Z,102008.40
2018-09-29T17:34:14.875Z,102008.67
2018-09-29T17:36:42.896Z,101998.09
2018-09-29T17:39:11.752Z,102000.75
2018-09-29T17:41:40.036Z,101998.73
2018-09-29T17:44:08.772Z,102000.97
2018-09-29T17:46:36.806Z,102004.55
2018-09-29T17:49:05.600Z,101999.81
2018-09-29T17:51:33.669Z,101996.73
2018-09-29T17:54:01.962Z,101998.91
2018-09-29T17:56:29.975Z,102001.45
2018-09-29T17:58:58.046Z,102000.45
2018-09-29T18:01:26.032Z,102003.38
2018-09-29T18:03:54.116Z,101997.32
2018-09-29T18:06:22.100Z,101995.06
2018-09-29T18:08:51.064Z,101995.87
2018-09-29T18:11:19.111Z,101986.83
2018-09-29T18:13:47.138Z,101981.12
2018-09-29T18:16:15.177Z,101970.24
2018-09-29T18:18:43.208Z,101974.09
2018-09-29T18:21:11.452Z,101972.64
2018-09-29T18:23:39.511Z,101975.31
2018-09-29T18:26:07.541Z,101979.20
2018-09-29T18:28:35.591Z,101985.34
2018-09-29T18:31:03.651Z,101992.98
2018-09-29T18:33:31.697Z,101984.91
2018-09-29T18:35:59.721Z,101988.58
2018-09-29T18:38:27.752Z,101985.42
2018-09-29T18:40:55.773Z,101984.53
2018-09-29T18:43:23.936Z,101984.73
2018-09-29T18:45:52.180Z,101982.41
2018-09-29T18:48:20.295Z,101988.77
2018-09-29T18:50:48.624Z,101987.28
2018-09-29T18:53:16.676Z,101991.59
2018-09-29T18:55:44.760Z,101985.83
2018-09-29T18:58:12.777Z,101979.98
2018-09-29T19:00:40.904Z,101978.42
2018-09-29T19:03:08.928Z,101968.66
2018-09-29T19:05:37.038Z,101967.02
2018-09-29T19:08:05.314Z,101966.32
2018-09-29T19:10:33.337Z,101961.74
2018-09-29T19:13:01.482Z,101963.64
2018-09-29T19:15:29.628Z,101963.39
2018-09-29T19:17:57.663Z,101966.19
2018-09-29T19:20:25.772Z,101968.47
2018-09-29T19:22:53.792Z,101962.16
2018-09-29T19:25:21.828Z,101969.59
2018-09-29T19:27:49.847Z,101964.03
2018-09-29T19:30:17.896Z,101959.16
2018-09-29T19:32:46.095Z,101954.27
2018-09-29T19:35:14.276Z,101958.03
2018-09-29T19:37:42.563Z,101957.32
2018-09-29T19:40:10.584Z,101952.29
2018-09-29T19:42:38.628Z,101959.40
2018-09-29T19:45:06.812Z,101954.84
2018-09-29T19:47:34.849Z,101951.19
2018-09-29T19:50:02.932Z,101947.05
2018-09-29T19:52:30.961Z,101951.62
2018-09-29T19:54:59.007Z,101948.03
2018-09-29T19:57:27.056Z,101945.67
2018-09-29T19:59:55.083Z,101938.99
2018-09-29T20:02:23.100Z,101937.48
2018-09-29T20:04:51.146Z,101938.59
2018-09-29T20:07:19.175Z,101944.83
2018-09-29T20:09:47.188Z,101941.95
2018-09-29T20:12:15.831Z,101937.33
2018-09-29T20:14:44.025Z,101933.52
2018-09-29T20:17:12.037Z,101931.46
2018-09-29T20:19:40.715Z,101940.65
2018-09-29T20:22:09.387Z,101933.45
2018-09-29T20:24:37.508Z,101934.98
2018-09-29T20:27:05.578Z,101933.41
2018-09-29T20:29:33.815Z,101934.44
2018-09-29T20:32:01.819Z,101929.36
2018-09-29T20:34:29.837Z,101928.60
2018-09-29T20:36:58.005Z,101925.72
2018-09-29T20:39:26.021Z,101921.95
2018-09-29T20:41:54.049Z,101922.45
2018-09-29T20:44:22.078Z,101916.52
2018-09-29T20:46:50.095Z,101912.79
2018-09-29T20:49:18.132Z,101914.19
2018-09-29T20:51:46.128Z,101912.50
2018-09-29T20:54:14.151Z,101908.32
2018-09-29T20:56:42.162Z,101906.33
2018-09-29T20:59:10.184Z,101902.33
2018-09-29T21:01:38.240Z,101901.57
2018-09-29T21:04:06.331Z,101894.27
2018-09-29T21:06:34.349Z,101891.30
2018-09-29T21:09:02.376Z,101889.58
2018-09-29T21:11:30.406Z,101887.39
2018-09-29T21:13:58.444Z,101870.98
2018-09-29T21:16:26.476Z,101871.84
2018-09-29T21:18:54.495Z,101877.08
2018-09-29T21:21:22.516Z,101877.94
2018-09-29T21:23:50.535Z,101874.95
2018-09-29T21:26:18.553Z,101873.69
2018-09-29T21:28:46.560Z,101876.92
2018-09-29T21:31:14.594Z,101875.66
2018-09-29T21:33:42.619Z,101874.07
2018-09-29T21:36:10.640Z,101869.50
2018-09-29T21:38:38.656Z,101864.81
2018-09-29T21:41:06.706Z,101859.73
2018-09-29T21:43:34.725Z,101864.52
2018-09-29T21:46:02.748Z,101864.67
2018-09-29T21:48:30.759Z,101856.05
2018-09-29T21:50:58.943Z,101849.27
2018-09-29T21:53:26.984Z,101839.40
2018-09-29T21:55:55.000Z,101836.58
2018-09-29T21:58:23.039Z,101838.88
2018-09-29T22:00:51.127Z,101835.11
2018-09-29T22:03:19.160Z,101829.05
2018-09-29T22:05:47.183Z,101828.64
2018-09-29T22:08:15.435Z,101828.32
2018-09-29T22:10:43.715Z,101819.44
2018-09-29T22:13:11.732Z,101817.88
2018-09-29T22:15:39.752Z,101815.41
2018-09-29T22:18:07.781Z,101812.45
2018-09-29T22:20:36.431Z,101807.76
2018-09-29T22:23:05.414Z,101803.48
2018-09-29T22:25:33.431Z,101806.67
2018-09-29T22:28:01.464Z,101806.31
2018-09-29T22:30:29.503Z,101803.91
2018-09-29T22:32:57.503Z,101796.20
2018-09-29T22:35:25.528Z,101790.64
2018-09-29T22:37:53.559Z,101792.42
2018-09-29T22:40:21.571Z,101794.22
2018-09-29T22:42:49.588Z,101788.23
2018-09-29T22:45:17.607Z,101787.48
2018-09-29T22:47:45.603Z,101782.80
2018-09-29T22:50:14.195Z,101785.04
2018-09-29T22:52:42.223Z,101785.59
2018-09-29T22:55:10.228Z,101782.20
2018-09-29T22:57:38.324Z,101774.91
2018-09-29T23:00:07.112Z,101766.27
2018-09-29T23:02:35.135Z,101773.27
2018-09-29T23:05:03.159Z,101778.16
2018-09-29T23:07:31.171Z,101782.67
2018-09-29T23:09:59.192Z,101785.82
2018-09-29T23:12:27.211Z,101776.88
2018-09-29T23:14:55.215Z,101771.33
2018-09-29T23:17:23.407Z,101767.58
2018-09-29T23:19:51.435Z,101762.56
2018-09-29T23:22:19.457Z,101755.30
2018-09-29T23:24:47.619Z,101752.77
2018-09-29T23:27:15.632Z,101747.63
2018-09-29T23:29:43.647Z,101749.37
2018-09-29T23:32:11.676Z,101752.45
2018-09-29T23:34:39.700Z,101749.56
2018-09-29T23:37:07.721Z,101742.95
2018-09-29T23:39:35.923Z,101737.59
2018-09-29T23:42:03.936Z,101738.59
2018-09-29T23:44:31.951Z,101739.88
2018-09-29T23:46:59.983Z,101731.30
2018-09-29T23:49:28.003Z,101731.36
2018-09-29T23:51:56.044Z,101721.81
2018-09-29T23:54:24.237Z,101723.60
2018-09-29T23:56:52.211Z,101718.11
2018-09-29T23:59:20.400Z,101712.98
